Tiempo atmosférico en la estación meteorológica de Castuera , Badajoz (512 m.)

Fecha
DESCASC
Temp. máxima en grados centígrados (hora)
DESCASC
Temp. mínima en grados centígrados (hora)
DESCASC
Temp. media en grados centígrados
DESCASC
Racha de viento máxima en m/sg (hora)
DESCASC
Velocidad máxima media en intervalos de 10 minutos(hora)
DESCASC
Precipitaciones diarias en mm
DESCASC
Precipitaciones de 00:00 a 06:00 en mm
DESCASC
Precipitaciones de 06:00 a 12:00 en mm
DESCASC
Precipitaciones de 12:00 a 18:00 en mm
DESCASC
Precipitaciones de 18:00 a 24:00 en mm
DESCASC
17-09-2017 26.9 (16:00) 13 (08:30) 19.9 8.61 (14:30) 5 (20:00) 0 0 0 0 0
16-09-2017 24.5 (16:20) 11 (07:40) 17.8 8.61 (16:30) 4.17 (18:30) 0 0 0 0 0
15-09-2017 25.1 (18:10) 12 (08:10) 18.6 12.5 (16:10) 6.94 (16:10) 0 0 0 0 0
14-09-2017 30.2 (17:50) 19.9 (00:00) 25.1 9.17 (18:30) 5 (18:40) 0 0 0 0 0
13-09-2017 34.8 (17:10) 19.2 (00:00) 27 12.5 (18:20) 5 (15:10) 0 0 0 0 0
12-09-2017 31.1 (17:10) 16.8 (00:00) 23.9 8.06 (14:50) 5 (16:30) 0 0 0 0 0
11-09-2017 32.4 (17:40) 18.3 (00:00) 25.4 9.17 (18:00) 5.28 (19:30) 0 0 0 0 0
10-09-2017 26 (18:00) 11.6 (00:00) 18.8 11.39 (00:40) 7.5 (00:40) 0 0 0 0 0
09-09-2017 26.1 (18:10) 13.6 (00:00) 19.9 13.61 (15:20) 8.61 (18:20) 0 0 0 0 0
08-09-2017 33.7 (17:40) 20.6 (00:00) 27.2 9.72 (13:10) 5 (15:00) 0 0 0 0 0
07-09-2017 34.8 (16:20) 22.6 (00:00) 28.7 7.5 (15:30) 3.61 (17:20) 0 0 0 0 0
06-09-2017 35.5 (17:40) 22.6 (00:00) 29.1 8.89 (18:30) 3.89 (17:00) 0 0 0 0 0
05-09-2017 34.3 (17:20) 19.2 (00:00) 26.8 7.22 (17:50) 4.17 (18:00) 0 0 0 0 0
04-09-2017 31.1 (17:30) 16 (00:00) 23.6 8.89 (15:00) 5 (15:50) 0 0 0 0 0
03-09-2017 32.7 (16:10) 21.9 (00:00) 27.3 10.83 (16:10) 5.28 (17:20) 0 0 0 0 0
02-09-2017 33.5 (16:00) 20.8 (00:00) 27.1 12.5 (05:50) 7.5 (06:10) 0 0 0 0 0
01-09-2017 32.4 (15:50) 20.1 (00:00) 26.3 8.06 (19:10) 5 (19:10) 0 0 0 0 0
31-08-2017 30.7 (16:50) 18.3 (00:00) 24.5 8.06 (14:10) 4.17 (16:50) 0 0 0 0 0
30-08-2017 28.8 (17:30) 16.3 (00:00) 22.5 6.94 (16:40) 4.17 (16:40) 0 0 0 0 0
29-08-2017 27.1 (15:40) 16.2 (00:00) 21.7 11.67 (16:40) 8.33 (16:40) 0 0 0 0 0
28-08-2017 30.4 (17:20) 18.3 (00:00) 24.3 15 (16:00) 8.33 (00:50) 0 0 0 0 0
27-08-2017 32.8 (16:50) 21.5 (00:00) 27.1 19.17 (09:40) 12.78 (09:50) 0.6 0.4 0.2 0 0
26-08-2017 34.3 (17:50) 24 (00:00) 29.1 11.67 (21:40) 7.5 (21:40) 0 0 0 0 0
25-08-2017 36.8 (17:10) 21.6 (00:00) 29.2 13.33 (17:50) 6.94 (17:20) 0 0 0 0 0
24-08-2017 36.1 (18:00) 23.3 (00:00) 29.7 12.22 (14:40) 5.83 (19:30) 0 0 0 0 0
23-08-2017 38.5 (17:50) 24.4 (00:00) 31.4 8.89 (20:10) 5.28 (20:00) 0 0 0 0 0
22-08-2017 36.5 (15:50) 24.8 (00:00) 30.6 8.61 (17:20) 4.72 (18:10) 0 0 0 0 0

Gráficas

Temp. máximas Temp. mínimas Temp. medias Precipitaciones Rachas de viento máximas Velocidades máximas media en intervalos de 10 minutos

Datos horarios

Fecha y hora oficial Temperatura (ºC) Velocidad del viento (km/h) Dirección del viento Racha (km/h) Dirección de racha Precipitación (mm) Presión (hPa) Tendencia (hPa) Humedad (%)
2017-09-20 23:00:00 25.1 5 Nordeste 10 Este 0 -- -- 26
2017-09-20 22:00:00 25.5 8 Nordeste 15 Nordeste 0 -- -- 28
2017-09-20 21:00:00 26 8 Nordeste 16 Nordeste 0 -- -- 28
2017-09-20 20:00:00 27.7 12 Nordeste 22 Norte 0 -- -- 26
2017-09-20 19:00:00 29.3 9 Norte 23 Norte 0 -- -- 24
2017-09-20 18:00:00 30.7 12 Norte 22 Norte 0 -- -- 22
2017-09-20 17:00:00 31.1 8 Oeste 28 Sudoeste 0 -- -- 19
2017-09-20 16:00:00 30.7 8 Oeste 25 Oeste 0 -- -- 22
2017-09-20 15:00:00 30 9 Oeste 21 Oeste 0 -- -- 22
2017-09-20 14:00:00 30 8 Sur 16 Sur 0 -- -- 23
2017-09-20 13:00:00 28.7 8 Sur 14 Sur 0 -- -- 23
2017-09-20 12:00:00 27 8 Sur 13 Sur 0 -- -- 26
2017-09-20 11:00:00 24.2 8 Sudeste 17 Sudeste 0 -- -- 30
2017-09-20 10:00:00 20.8 2 Sudoeste 8 Nordeste 0 -- -- 37
2017-09-20 09:00:00 19.9 8 Sudeste 14 Este 0 -- -- 39
2017-09-20 08:00:00 19 0 Calma 4 Sur 0 -- -- 42
2017-09-20 07:00:00 19.4 0 Calma 2 Sudeste 0 -- -- 40
2017-09-20 06:00:00 19.6 0 Calma 2 Oeste 0 -- -- 39
2017-09-20 05:00:00 20.2 0 Calma 4 Sudeste 0 -- -- 38
2017-09-20 04:00:00 20.4 2 Sur 2 Sur 0 -- -- 37
2017-09-20 03:00:00 20.7 0 Calma 4 Sudoeste 0 -- -- 37
2017-09-20 02:00:00 20.2 3 Sur 7 Sudeste 0 -- -- 37
2017-09-20 01:00:00 21.6 4 Nordeste 7 Sudeste 0 -- -- 35
2017-09-20 00:00:00 21.7 3 Este 7 Nordeste 0 -- -- 33
2017-09-19 23:00:00 22.4 6 Nordeste 9 Nordeste 0 -- -- 32
2017-09-19 22:00:00 22.9 6 Nordeste 11 Norte 0 -- -- 31
2017-09-19 21:00:00 23.8 8 Norte 13 Norte 0 -- -- 29
2017-09-19 20:00:00 26 8 Norte 17 Noroeste 0 -- -- 27
2017-09-19 19:00:00 27.5 8 Norte 19 Norte 0 -- -- 26
2017-09-19 18:00:00 28 6 Oeste 19 Oeste 0 -- -- 27
2017-09-19 17:00:00 27.5 10 Noroeste 21 Oeste 0 -- -- 28
2017-09-19 16:00:00 27.2 10 Noroeste 18 Noroeste 0 -- -- 29
2017-09-19 15:00:00 26.6 8 Sudoeste 16 Oeste 0 -- -- 29
2017-09-19 14:00:00 25.1 7 Norte 14 Noroeste 0 -- -- 33
2017-09-19 13:00:00 23.6 7 Norte 14 Norte 0 -- -- 39
2017-09-19 12:00:00 21.3 7 Norte 13 Nordeste 0 -- -- 46
2017-09-19 11:00:00 19.4 6 Norte 11 Norte 0 -- -- 51
2017-09-19 10:00:00 16.8 2 Sudoeste 4 Sur 0 -- -- 63
2017-09-19 09:00:00 14.3 0 Calma 2 Sudeste 0 -- -- 71
2017-09-19 08:00:00 14.3 0 Calma 3 Sur 0 -- -- 70
2017-09-19 07:00:00 14.9 2 Sur 5 Sudoeste 0 -- -- 67
2017-09-19 06:00:00 15.3 0 Calma 5 Sudeste 0 -- -- 65
2017-09-19 05:00:00 15.7 4 Sudeste 8 Sur 0 -- -- 63
2017-09-19 04:00:00 16.2 3 Sur 10 Sur 0 -- -- 60
2017-09-19 03:00:00 16.8 5 Sur 8 Sur 0 -- -- 58
2017-09-19 02:00:00 17.5 6 Sur 10 Sudeste 0 -- -- 54
2017-09-19 01:00:00 18.5 4 Sur 8 Sudeste 0 -- -- 50
2017-09-19 00:00:00 19.1 0 Calma 4 Noroeste 0 -- -- 47
2017-09-18 23:00:00 19.4 0 Calma 9 Oeste 0 -- -- 45
2017-09-18 22:00:00 20.2 3 Sudoeste 9 Noroeste 0 -- -- 43
2017-09-18 21:00:00 21.5 6 Noroeste 23 Noroeste 0 -- -- 43
2017-09-18 20:00:00 23.2 16 Noroeste 30 Noroeste 0 -- -- 43
2017-09-18 19:00:00 24.1 19 Noroeste 36 Noroeste 0 -- -- 43
2017-09-18 18:00:00 24.8 18 Noroeste 39 Noroeste 0 -- -- 39
2017-09-18 17:00:00 24.7 21 Noroeste 37 Noroeste 0 -- -- 37
2017-09-18 16:00:00 24.2 18 Noroeste 32 Noroeste 0 -- -- 41
2017-09-18 15:00:00 23.8 18 Noroeste 30 Oeste 0 -- -- 42
2017-09-18 14:00:00 22.6 11 Noroeste 29 Noroeste 0 -- -- 41
2017-09-18 13:00:00 21.6 14 Noroeste 28 Norte 0 -- -- 43
2017-09-18 12:00:00 18.8 12 Oeste 22 Oeste 0 -- -- 46
2017-09-18 11:00:00 16 8 Sudoeste 14 Sudoeste 0 -- -- 55
2017-09-18 10:00:00 13.4 6 Sudoeste 13 Sur 0 -- -- 65
2017-09-18 09:00:00 10.6 7 Sur 12 Sudoeste 0 -- -- 73
2017-09-18 08:00:00 10.8 5 Sudoeste 16 Sur 0 -- -- 71
2017-09-18 07:00:00 11.8 7 Sudoeste 11 Sudoeste 0 -- -- 62
2017-09-18 06:00:00 12.5 4 Sudoeste 10 Sur 0 -- -- 59
2017-09-18 05:00:00 13.4 4 Sudoeste 11 Sudoeste 0 -- -- 54
2017-09-18 04:00:00 14.1 4 Sur 9 Sudoeste 0 -- -- 49
2017-09-18 03:00:00 15.2 4 Sudoeste 12 Sudoeste 0 -- -- 42
2017-09-18 02:00:00 16.3 4 Sur 10 Sudoeste 0 -- -- 36
2017-09-18 01:00:00 17.6 4 Sudoeste 9 Oeste 0 -- -- 30
2017-09-18 00:00:00 18.4 3 Oeste 8 Sudoeste 0 -- -- 27
2017-09-17 23:00:00 19.9 4 Noroeste 14 Noroeste 0 -- -- 23
2017-09-17 22:00:00 20.8 8 Noroeste 16 Norte 0 -- -- 21
2017-09-17 21:00:00 22 9 Norte 21 Noroeste 0 -- -- 20
2017-09-17 20:00:00 24.1 18 Noroeste 28 Noroeste 0 -- -- 20
2017-09-17 19:00:00 25.2 13 Norte 28 Norte 0 -- -- 22
2017-09-17 18:00:00 25.9 13 Noroeste 27 Noroeste 0 -- -- 20
2017-09-17 17:00:00 26 10 Norte 28 Noroeste 0 -- -- 18
2017-09-17 16:00:00 26.9 9 Noroeste 26 Oeste 0 -- -- 19
2017-09-17 15:00:00 24.5 9 Oeste 31 Sudoeste 0 -- -- 21
2017-09-17 14:00:00 25.1 14 Oeste 29 Oeste 0 -- -- 20
2017-09-17 13:00:00 24 10 Oeste 17 Oeste 0 -- -- 24
2017-09-17 12:00:00 21.6 6 Oeste 12 Oeste 0 -- -- 26
2017-09-17 11:00:00 19.4 2 Noroeste 6 Noroeste 0 -- -- 32
2017-09-17 10:00:00 16.9 2 Sudoeste 4 Sur 0 -- -- 38
2017-09-17 09:00:00 13.3 0 Calma 4 Sudeste 0 -- -- 46
2017-09-17 08:00:00 13.6 0 Calma 4 Noroeste 0 -- -- 44
2017-09-17 07:00:00 14.7 3 Norte 6 Oeste 0 -- -- 39
2017-09-17 06:00:00 15.4 2 Sudeste 5 Sur 0 -- -- 36
2017-09-17 05:00:00 15.8 3 Sur 9 Sur 0 -- -- 35
2017-09-17 04:00:00 16 3 Sur 7 Oeste 0 -- -- 34
2017-09-17 03:00:00 17 3 Sudeste 4 Sudeste 0 -- -- 33
2017-09-17 02:00:00 17.6 0 Calma 8 Sudeste 0 -- -- 31
2017-09-17 01:00:00 19 5 Nordeste 10 Nordeste 0 -- -- 27
2017-09-17 00:00:00 19.4 6 Nordeste 10 Nordeste 0 -- -- 27
2017-09-16 23:00:00 19.2 6 Nordeste 14 Norte 0 -- -- 29
2017-09-16 22:00:00 20.2 6 Norte 12 Noroeste 0 -- -- 33
2017-09-16 21:00:00 21.1 8 Norte 14 Noroeste 0 -- -- 30
2017-09-16 20:00:00 23 12 Norte 20 Norte 0 -- -- 27
2017-09-16 19:00:00 23.8 13 Noroeste 26 Norte 0 -- -- 25
2017-09-16 18:00:00 23.7 11 Norte 23 Norte 0 -- -- 28
2017-09-16 17:00:00 24.5 14 Noroeste 31 Oeste 0 -- -- 27
2017-09-16 16:00:00 23.9 5 Noroeste 20 Noroeste 0 -- -- 29
2017-09-16 15:00:00 22.9 10 Norte 20 Norte 0 -- -- 34
2017-09-16 14:00:00 21.6 8 Norte 17 Nordeste 0 -- -- 41
2017-09-16 13:00:00 19.8 7 Nordeste 19 Nordeste 0 -- -- 46
2017-09-16 12:00:00 18.3 8 Nordeste 15 Nordeste 0 -- -- 47
2017-09-16 11:00:00 16.3 4 Noroeste 8 Noroeste 0 -- -- 42
2017-09-16 10:00:00 13.9 2 Sudoeste 6 Sudoeste 0 -- -- 51
2017-09-16 09:00:00 11.2 5 Sur 6 Sudeste 0 -- -- 59
2017-09-16 08:00:00 11 5 Sudeste 9 Sur 0 -- -- 61
2017-09-16 07:00:00 11.3 5 Sur 9 Sur 0 -- -- 60
2017-09-16 06:00:00 11.9 5 Sur 9 Sur 0 -- -- 57
2017-09-16 05:00:00 12.2 5 Sur 10 Sudoeste 0 -- -- 56
2017-09-16 04:00:00 13.2 5 Sur 11 Sur 0 -- -- 52
2017-09-16 03:00:00 14.2 4 Sur 10 Sudoeste 0 -- -- 45
2017-09-16 02:00:00 15.6 2 Sudoeste 12 Norte 0 -- -- 32
2017-09-16 01:00:00 17 8 Norte 16 Noroeste 0 -- -- 30
2017-09-16 00:00:00 17.6 9 Norte 22 Norte 0 -- -- 28
2017-09-15 23:00:00 18.5 12 Noroeste 20 Noroeste 0 -- -- 25
2017-09-15 22:00:00 19.5 11 Noroeste 21 Noroeste 0 -- -- 25
2017-09-15 21:00:00 21.1 14 Noroeste 30 Noroeste 0 -- -- 23
2017-09-15 20:00:00 23.2 13 Noroeste 32 Oeste 0 -- -- 21
2017-09-15 19:00:00 24.8 16 Noroeste 36 Noroeste 0 -- -- 22
2017-09-15 18:00:00 24.9 19 Noroeste 39 Noroeste 0 -- -- 22
2017-09-15 17:00:00 24.9 21 Noroeste 45 Oeste 0 -- -- 23
2017-09-15 16:00:00 23.9 20 Noroeste 36 Oeste 0 -- -- 26
2017-09-15 15:00:00 22.4 17 Oeste 39 Oeste 0 -- -- 32
2017-09-15 14:00:00 21.4 18 Noroeste 34 Noroeste 0 -- -- 35
2017-09-15 13:00:00 20.4 16 Noroeste 30 Oeste 0 -- -- 38
2017-09-15 12:00:00 18.8 13 Oeste 21 Oeste 0 -- -- 43
2017-09-15 11:00:00 16.8 12 Oeste 22 Sudoeste 0 -- -- 51
2017-09-15 10:00:00 14.4 12 Oeste 18 Oeste 0 -- -- 63
2017-09-15 09:00:00 12 8 Sudoeste 13 Sudoeste 0 -- -- 73
2017-09-15 08:00:00 12.1 7 Sur 11 Sur 0 -- -- 68
2017-09-15 07:00:00 13 5 Sur 10 Sur 0 -- -- 59
2017-09-15 06:00:00 14.1 7 Sudoeste 17 Oeste 0 -- -- 49
2017-09-15 05:00:00 15.5 6 Oeste 19 Oeste 0 -- -- 44
2017-09-15 04:00:00 17.2 5 Sudoeste 14 Sudoeste 0 -- -- 43
2017-09-15 03:00:00 18.8 6 Oeste 18 Oeste 0 -- -- 46
2017-09-15 02:00:00 20.4 8 Sudoeste 18 Oeste 0 -- -- 51
2017-09-15 01:00:00 22 9 Oeste 15 Oeste 0 -- -- 47
2017-09-15 00:00:00 23.3 4 Oeste 15 Oeste 0 -- -- 34
2017-09-14 23:00:00 23.7 6 Sur 10 Sur 0 -- -- 29
2017-09-14 22:00:00 24.6 3 Oeste 10 Oeste 0 -- -- 27
2017-09-14 21:00:00 25.6 4 Noroeste 19 Noroeste 0 -- -- 27
2017-09-14 20:00:00 27.4 13 Noroeste 28 Noroeste 0 -- -- 23
2017-09-14 19:00:00 29.3 18 Noroeste 33 Noroeste 0 -- -- 26
2017-09-14 18:00:00 30.2 10 Noroeste 28 Noroeste 0 -- -- 21
2017-09-14 17:00:00 29.8 13 Noroeste 30 Norte 0 -- -- 25
2017-09-14 16:00:00 29.3 17 Noroeste 32 Noroeste 0 -- -- 27
2017-09-14 15:00:00 28.7 12 Noroeste 26 Oeste 0 -- -- 26
2017-09-14 14:00:00 28.4 14 Oeste 24 Noroeste 0 -- -- 26
2017-09-14 13:00:00 26.5 13 Oeste 25 Oeste 0 -- -- 32
2017-09-14 12:00:00 23.7 9 Noroeste 16 Oeste 0 -- -- 41
2017-09-14 11:00:00 22.2 8 Noroeste 17 Noroeste 0 -- -- 46
2017-09-14 10:00:00 21.2 7 Noroeste 16 Oeste 0 -- -- 48
2017-09-14 09:00:00 20.1 5 Sur 11 Sur 0 -- -- 49
2017-09-14 08:00:00 20.2 5 Sur 12 Sudeste 0 -- -- 49
2017-09-14 07:00:00 20.1 6 Sur 12 Sur 0 -- -- 51
2017-09-14 06:00:00 20.2 6 Sur 9 Sudoeste 0 -- -- 48
2017-09-14 05:00:00 20.8 5 Sur 8 Sudoeste 0 -- -- 43
2017-09-14 04:00:00 22 5 Sur 9 Sudoeste 0 -- -- 37
2017-09-14 03:00:00 23.1 3 Sur 13 Oeste 0 -- -- 33
2017-09-14 02:00:00 24.4 3 Oeste 11 Oeste 0 -- -- 32
2017-09-14 01:00:00 25.9 5 Sur 10 Sur 0 -- -- 29
2017-09-14 00:00:00 26.3 7 Sur 10 Sur 0 -- -- 28
2017-09-13 23:00:00 26.9 4 Sur 6 Sur 0 -- -- 27
2017-09-13 22:00:00 28.2 5 Norte 17 Norte 0 -- -- 25
2017-09-13 21:00:00 29.4 10 Norte 22 Norte 0 -- -- 24
2017-09-13 20:00:00 32 13 Norte 34 Noroeste 0 -- -- 21
2017-09-13 19:00:00 34.1 12 Oeste 45 Noroeste 0 -- -- 16
2017-09-13 18:00:00 34.3 9 Noroeste 29 Sudoeste 0 -- -- 15
2017-09-13 17:00:00 33.9 17 Oeste 29 Noroeste 0 -- -- 16
2017-09-13 16:00:00 33.8 15 Oeste 27 Oeste 0 -- -- 15
2017-09-13 15:00:00 33.2 12 Oeste 27 Sudoeste 0 -- -- 18
2017-09-13 14:00:00 32.1 12 Oeste 25 Sudoeste 0 -- -- 20
2017-09-13 13:00:00 32 10 Sur 23 Sur 0 -- -- 22
2017-09-13 12:00:00 29.9 11 Sur 18 Sur 0 -- -- 26
2017-09-13 11:00:00 28.1 9 Sur 15 Sudeste 0 -- -- 26
2017-09-13 10:00:00 25.1 12 Sudeste 19 Sudeste 0 -- -- 32
2017-09-13 09:00:00 22.6 13 Sudeste 22 Sudeste 0 -- -- 35
2017-09-13 08:00:00 19.2 2 Sudoeste 15 Sudeste 0 -- -- 41
2017-09-13 07:00:00 20.6 8 Sudeste 13 Sudeste 0 -- -- 39
2017-09-13 06:00:00 20.8 5 Sudeste 10 Este 0 -- -- 43
2017-09-13 05:00:00 20.5 3 Sudeste 6 Sudeste 0 -- -- 45
2017-09-13 04:00:00 21.1 0 Calma 7 Nordeste 0 -- -- 44
2017-09-13 03:00:00 21.7 4 Sudeste 8 Nordeste 0 -- -- 42
2017-09-13 02:00:00 22.9 6 Nordeste 9 Nordeste 0 -- -- 40
2017-09-13 01:00:00 23.5 4 Norte 10 Norte 0 -- -- 37
2017-09-13 00:00:00 24.4 8 Nordeste 14 Nordeste 0 -- -- 34
2017-09-12 23:00:00 25.1 5 Norte 13 Norte 0 -- -- 33
2017-09-12 22:00:00 25.9 8 Norte 17 Norte 0 -- -- 31
2017-09-12 21:00:00 27.5 9 Norte 23 Norte 0 -- -- 27
2017-09-12 20:00:00 29.9 14 Noroeste 27 Noroeste 0 -- -- 24
2017-09-12 19:00:00 31 12 Norte 27 Norte 0 -- -- 22
2017-09-12 18:00:00 30.7 9 Norte 23 Nordeste 0 -- -- 22
2017-09-12 17:00:00 31 10 Norte 27 Noroeste 0 -- -- 21
2017-09-12 16:00:00 30.3 15 Norte 27 Noroeste 0 -- -- 21
2017-09-12 15:00:00 29.4 13 Norte 29 Norte 0 -- -- 25
2017-09-12 14:00:00 27.8 14 Noroeste 27 Noroeste 0 -- -- 29
2017-09-12 13:00:00 26.4 14 Noroeste 26 Noroeste 0 -- -- 31
2017-09-12 12:00:00 24.9 12 Norte 27 Noroeste 0 -- -- 35
2017-09-12 11:00:00 22.6 10 Noroeste 18 Noroeste 0 -- -- 42
2017-09-12 10:00:00 20.4 2 Oeste 8 Sur 0 -- -- 47
2017-09-12 09:00:00 17 4 Sur 8 Sur 0 -- -- 56
2017-09-12 08:00:00 17.4 0 Calma 4 Sur 0 -- -- 53
2017-09-12 07:00:00 18.1 0 Calma 5 Oeste 0 -- -- 51
2017-09-12 06:00:00 18.8 4 Sur 7 Norte 0 -- -- 48
2017-09-12 05:00:00 20.1 5 Norte 12 Norte 0 -- -- 45
2017-09-12 04:00:00 20.7 2 Norte 4 Noroeste 0 -- -- 43
2017-09-12 03:00:00 21.7 0 Calma 10 Norte 0 -- -- 41
2017-09-12 02:00:00 22.9 9 Norte 14 Noroeste 0 -- -- 38
2017-09-12 01:00:00 23.7 8 Norte 15 Noroeste 0 -- -- 35
2017-09-12 00:00:00 24.9 10 Norte 17 Norte 0 -- -- 29
2017-09-11 23:00:00 26.1 12 Norte 20 Noroeste 0 -- -- 28
2017-09-11 22:00:00 27.4 6 Noroeste 17 Norte 0 -- -- 25
2017-09-11 21:00:00 28.6 9 Norte 24 Noroeste 0 -- -- 24
2017-09-11 20:00:00 31 17 Noroeste 31 Norte 0 -- -- 21
2017-09-11 19:00:00 31.6 15 Noroeste 33 Noroeste 0 -- -- 22
2017-09-11 18:00:00 32.2 17 Norte 33 Noroeste 0 -- -- 22
2017-09-11 17:00:00 31.9 12 Noroeste 32 Norte 0 -- -- 23
2017-09-11 16:00:00 31.3 15 Norte 26 Norte 0 -- -- 23
2017-09-11 15:00:00 30.5 12 Noroeste 24 Noroeste 0 -- -- 25
2017-09-11 14:00:00 29.4 8 Norte 18 Noroeste 0 -- -- 27
2017-09-11 13:00:00 27.3 8 Oeste 19 Oeste 0 -- -- 27
2017-09-11 12:00:00 26 6 Sudoeste 11 Sudoeste 0 -- -- 28
2017-09-11 11:00:00 23.2 4 Noroeste 10 Oeste 0 -- -- 32
2017-09-11 10:00:00 20.9 3 Noroeste 5 Noroeste 0 -- -- 30
2017-09-11 09:00:00 18.6 4 Sudeste 6 Sudeste 0 -- -- 31
2017-09-11 08:00:00 18.4 0 Calma 9 Nordeste 0 -- -- 32
2017-09-11 07:00:00 19.4 6 Nordeste 10 Norte 0 -- -- 30
2017-09-11 06:00:00 19.9 6 Norte 10 Norte 0 -- -- 29
2017-09-11 05:00:00 20.1 2 Noroeste 8 Sur 0 -- -- 28
2017-09-11 04:00:00 20.4 2 Sur 9 Sudeste 0 -- -- 27
2017-09-11 03:00:00 20.4 2 Sur 4 Sudeste 0 -- -- 26
2017-09-11 02:00:00 21.1 0 Calma 5 Norte 0 -- -- 27
2017-09-11 01:00:00 20.9 5 Sudeste 10 Sudeste 0 -- -- 28
2017-09-11 00:00:00 21.2 0 Calma 5 Nordeste 0 -- -- 29
2017-09-10 23:00:00 21.8 3 Norte 6 Norte 0 -- -- 28
2017-09-10 22:00:00 22.1 0 Calma 8 Norte 0 -- -- 27
2017-09-10 21:00:00 23.2 5 Norte 15 Norte 0 -- -- 23
2017-09-10 20:00:00 24.6 8 Norte 21 Norte 0 -- -- 22
2017-09-10 19:00:00 25.7 10 Norte 21 Noroeste 0 -- -- 22
2017-09-10 18:00:00 26 9 Noroeste 19 Norte 0 -- -- 22
2017-09-10 17:00:00 25.4 6 Norte 23 Noroeste 0 -- -- 24
2017-09-10 16:00:00 25 5 Norte 21 Oeste 0 -- -- 26
2017-09-10 15:00:00 23.5 7 Noroeste 20 Oeste 0 -- -- 27
2017-09-10 14:00:00 22.6 8 Oeste 18 Sudoeste 0 -- -- 31
2017-09-10 13:00:00 20.9 6 Norte 16 Norte 0 -- -- 36
2017-09-10 12:00:00 19.4 4 Norte 14 Norte 0 -- -- 41
2017-09-10 11:00:00 16.5 5 Noroeste 11 Oeste 0 -- -- 51
2017-09-10 10:00:00 14.5 4 Oeste 7 Oeste 0 -- -- 59
2017-09-10 09:00:00 11.7 0 Calma 4 Sudoeste 0 -- -- 71
2017-09-10 08:00:00 11.8 0 Calma 6 Sudoeste 0 -- -- 71
2017-09-10 07:00:00 12.4 0 Calma 5 Noroeste 0 -- -- 68
2017-09-10 06:00:00 13.1 3 Sur 24 Norte 0 -- -- 64
2017-09-10 05:00:00 13.7 4 Oeste 23 Noroeste 0 -- -- 62
2017-09-10 04:00:00 14.5 4 Sur 10 Noroeste 0 -- -- 60
2017-09-10 03:00:00 15.5 2 Sudoeste 37 Noroeste 0 -- -- 56
2017-09-10 02:00:00 16.4 18 Noroeste 39 Noroeste 0 -- -- 53
2017-09-10 01:00:00 17.3 25 Noroeste 41 Noroeste 0 -- -- 50
2017-09-10 00:00:00 18.3 16 Noroeste 43 Noroeste 0 -- -- 48
2017-09-09 23:00:00 19.4 21 Noroeste 33 Noroeste 0 -- -- 43
2017-09-09 22:00:00 21.2 22 Noroeste 36 Norte 0 -- -- 33
2017-09-09 21:00:00 22.4 22 Noroeste 39 Noroeste 0 -- -- 30
2017-09-09 20:00:00 24.4 27 Noroeste 45 Noroeste 0 -- -- 27
2017-09-09 19:00:00 25.2 25 Noroeste 48 Norte 0 -- -- 30
2017-09-09 18:00:00 26 25 Noroeste 47 Noroeste 0 -- -- 32
2017-09-09 17:00:00 25.5 24 Noroeste 45 Noroeste 0 -- -- 35
2017-09-09 16:00:00 25.3 26 Noroeste 49 Noroeste 0 -- -- 31
2017-09-09 15:00:00 24.5 24 Noroeste 45 Noroeste 0 -- -- 36
2017-09-09 14:00:00 22.1 24 Noroeste 38 Noroeste 0 -- -- 45
2017-09-09 13:00:00 20 18 Noroeste 28 Oeste 0 -- -- 54
2017-09-09 12:00:00 18.3 17 Noroeste 27 Noroeste 0 -- -- 59
2017-09-09 11:00:00 17.4 17 Oeste 24 Noroeste 0 -- -- 62
2017-09-09 10:00:00 15.5 12 Oeste 19 Oeste 0 -- -- 73
2017-09-09 09:00:00 14.3 6 Sudoeste 14 Sudoeste 0 -- -- 78
2017-09-09 08:00:00 13.7 4 Sudoeste 13 Sudoeste 0 -- -- 75
2017-09-09 07:00:00 13.7 7 Sudoeste 13 Sudoeste 0 -- -- 68
2017-09-09 06:00:00 14.4 9 Sur 17 Sudoeste 0 -- -- 59
2017-09-09 05:00:00 15.7 8 Sur 15 Oeste 0 -- -- 50
2017-09-09 04:00:00 16.9 10 Oeste 17 Sur 0 -- -- 42
2017-09-09 03:00:00 18 12 Sudoeste 17 Sudoeste 0 -- -- 38
2017-09-09 02:00:00 19.7 8 Sudoeste 19 Oeste 0 -- -- 36
2017-09-09 01:00:00 21.8 11 Oeste 21 Oeste 0 -- -- 30
2017-09-09 00:00:00 23 6 Sudoeste 11 Sudoeste 0 -- -- 22
2017-09-08 23:00:00 24.7 5 Oeste 21 Oeste 0 -- -- 20
2017-09-08 22:00:00 26.6 10 Noroeste 21 Noroeste 0 -- -- 14
2017-09-08 21:00:00 29 14 Noroeste 26 Noroeste 0 -- -- 13
2017-09-08 20:00:00 31.9 14 Noroeste 28 Oeste 0 -- -- 13
2017-09-08 19:00:00 33 17 Oeste 32 Noroeste 0 -- -- 10
2017-09-08 18:00:00 33.6 17 Noroeste 32 Oeste 0 -- -- 9
2017-09-08 17:00:00 33.6 15 Noroeste 31 Noroeste 0 -- -- 9
2017-09-08 16:00:00 33 17 Noroeste 35 Noroeste 0 -- -- 9
2017-09-08 15:00:00 32.4 18 Noroeste 31 Oeste 0 -- -- 11
2017-09-08 14:00:00 31.7 15 Noroeste 35 Oeste 0 -- -- 12
2017-09-08 13:00:00 30.2 9 Oeste 19 Oeste 0 -- -- 13
2017-09-08 12:00:00 28.6 4 Sudoeste 10 Oeste 0 -- -- 18
2017-09-08 11:00:00 26.2 5 Sudoeste 8 Sudoeste 0 -- -- 19
2017-09-08 10:00:00 25.1 5 Sur 8 Sudeste 0 -- -- 20
2017-09-08 09:00:00 20.9 4 Sur 8 Sudeste 0 -- -- 24
2017-09-08 08:00:00 20.9 6 Sudeste 8 Sudeste 0 -- -- 25
2017-09-08 07:00:00 22.6 3 Nordeste 7 Nordeste 0 -- -- 21
2017-09-08 06:00:00 22.9 3 Norte 6 Norte 0 -- -- 22
2017-09-08 05:00:00 23.4 2 Sur 6 Noroeste 0 -- -- 22
2017-09-08 04:00:00 24.5 0 Calma 6 Este 0 -- -- 23
2017-09-08 03:00:00 24 5 Sudeste 10 Sudeste 0 -- -- 23
2017-09-08 02:00:00 24.2 4 Sur 11 Sudeste 0 -- -- 22
2017-09-08 01:00:00 28.1 8 Este 18 Este 0 -- -- 19
2017-09-08 00:00:00 27.8 9 Nordeste 17 Nordeste 0 -- -- 17
2017-09-07 23:00:00 27.8 10 Nordeste 16 Norte 0 -- -- 19
2017-09-07 22:00:00 29.3 8 Norte 19 Norte 0 -- -- 23
2017-09-07 21:00:00 30.7 7 Norte 12 Noroeste 0 -- -- 22
2017-09-07 20:00:00 32.9 8 Norte 19 Norte 0 -- -- 16
2017-09-07 19:00:00 33.8 11 Norte 26 Noroeste 0 -- -- 17
2017-09-07 18:00:00 34.8 7 Norte 26 Noroeste 0 -- -- 17
2017-09-07 17:00:00 34.6 8 Norte 23 Oeste 0 -- -- 17
2017-09-07 16:00:00 34.1 7 Noroeste 27 Noroeste 0 -- -- 19
2017-09-07 15:00:00 33.5 10 Norte 24 Noroeste 0 -- -- 21
2017-09-07 14:00:00 32.4 9 Oeste 23 Oeste 0 -- -- 24
2017-09-07 13:00:00 32.5 7 Este 18 Sur 0 -- -- 27
2017-09-07 12:00:00 31 9 Sur 15 Sur 0 -- -- 28
2017-09-07 11:00:00 27.6 4 Sur 9 Sur 0 -- -- 33
2017-09-07 10:00:00 25 3 Norte 9 Norte 0 -- -- 39
2017-09-07 09:00:00 23 7 Nordeste 9 Nordeste 0 -- -- 43
2017-09-07 08:00:00 23 4 Norte 8 Nordeste 0 -- -- 42
2017-09-07 07:00:00 23.8 3 Nordeste 8 Norte 0 -- -- 40
2017-09-07 06:00:00 24.1 0 Calma 4 Noroeste 0 -- -- 37
2017-09-07 05:00:00 25.3 0 Calma 5 Oeste 0 -- -- 35
2017-09-07 04:00:00 26.1 0 Calma 5 Sudoeste 0 -- -- 34
2017-09-07 03:00:00 26.2 0 Calma 5 Sur 0 -- -- 34
2017-09-07 02:00:00 26.3 3 Sudeste 4 Sudeste 0 -- -- 33
2017-09-07 01:00:00 28 3 Noroeste 12 Nordeste 0 -- -- 31
2017-09-07 00:00:00 28.6 6 Norte 17 Norte 0 -- -- 29
2017-09-06 23:00:00 30.1 8 Norte 13 Norte 0 -- -- 27
2017-09-06 22:00:00 30.9 7 Norte 10 Nordeste 0 -- -- 23
2017-09-06 21:00:00 31.7 6 Nordeste 17 Norte 0 -- -- 20
2017-09-06 20:00:00 33.8 11 Norte 23 Noroeste 0 -- -- 22
2017-09-06 19:00:00 34.8 13 Noroeste 32 Norte 0 -- -- 24
2017-09-06 18:00:00 35.1 9 Noroeste 24 Noroeste 0 -- -- 24
2017-09-06 17:00:00 35 14 Oeste 26 Noroeste 0 -- -- 24
2017-09-06 16:00:00 35 5 Norte 22 Oeste 0 -- -- 24
2017-09-06 15:00:00 34.2 7 Nordeste 23 Oeste 0 -- -- 25
2017-09-06 14:00:00 34 5 Noroeste 14 Este 0 -- -- 26
2017-09-06 13:00:00 32.1 5 Noroeste 14 Sudoeste 0 -- -- 31
2017-09-06 12:00:00 30.3 6 Oeste 12 Oeste 0 -- -- 35
2017-09-06 11:00:00 27.8 5 Sudoeste 8 Oeste 0 -- -- 41
2017-09-06 10:00:00 25.6 5 Sur 8 Sur 0 -- -- 46
2017-09-06 09:00:00 22.6 0 Calma 4 Oeste 0 -- -- 54
2017-09-06 08:00:00 23 2 Nordeste 9 Sur 0 -- -- 52
2017-09-06 07:00:00 23.1 5 Sudeste 8 Sudeste 0 -- -- 52
2017-09-06 06:00:00 23.4 3 Sur 7 Sudeste 0 -- -- 51
2017-09-06 05:00:00 23.8 4 Sur 7 Sur 0 -- -- 49
2017-09-06 04:00:00 24.3 5 Sur 8 Sudeste 0 -- -- 47
2017-09-06 03:00:00 24.8 3 Sur 9 Sur 0 -- -- 44
2017-09-06 02:00:00 25.6 5 Sur 10 Sur 0 -- -- 40
2017-09-06 01:00:00 27 6 Oeste 14 Noroeste 0 -- -- 35
2017-09-06 00:00:00 27.2 0 Calma 14 Noroeste 0 -- -- 35
2017-09-05 23:00:00 28.6 6 Norte 13 Noroeste 0 -- -- 31
2017-09-05 22:00:00 29.5 7 Nordeste 14 Norte 0 -- -- 29
2017-09-05 21:00:00 31 8 Norte 17 Norte 0 -- -- 26
2017-09-05 20:00:00 33.2 10 Norte 24 Norte 0 -- -- 27
2017-09-05 19:00:00 33 13 Norte 24 Norte 0 -- -- 27
2017-09-05 18:00:00 33.9 15 Norte 26 Norte 0 -- -- 26
2017-09-05 17:00:00 33.7 7 Nordeste 21 Nordeste 0 -- -- 25
2017-09-05 16:00:00 33.4 7 Nordeste 17 Nordeste 0 -- -- 27
2017-09-05 15:00:00 33 7 Norte 17 Sudeste 0 -- -- 29
2017-09-05 14:00:00 32 8 Noroeste 19 Oeste 0 -- -- 30
2017-09-05 13:00:00 30.5 6 Sudoeste 15 Sur 0 -- -- 36
2017-09-05 12:00:00 26.9 4 Norte 12 Norte 0 -- -- 46
2017-09-05 11:00:00 24.8 5 Norte 13 Oeste 0 -- -- 52
2017-09-05 10:00:00 22.5 8 Oeste 11 Oeste 0 -- -- 59
2017-09-05 09:00:00 20.1 5 Nordeste 8 Nordeste 0 -- -- 67
2017-09-05 08:00:00 19.3 2 Sur 8 Sudeste 0 -- -- 70
2017-09-05 07:00:00 19.2 4 Sur 7 Sudoeste 0 -- -- 70
2017-09-05 06:00:00 19.7 5 Sur 7 Sur 0 -- -- 66
2017-09-05 05:00:00 20.5 2 Sur 8 Sur 0 -- -- 63
2017-09-05 04:00:00 20.8 6 Sur 9 Sur 0 -- -- 60
2017-09-05 03:00:00 21.9 2 Sudoeste 8 Sudoeste 0 -- -- 56
2017-09-05 02:00:00 22.9 2 Sur 5 Sur 0 -- -- 54
2017-09-05 01:00:00 23.8 4 Sur 8 Oeste 0 -- -- 52
2017-09-05 00:00:00 24.5 3 Sudoeste 10 Noroeste 0 -- -- 50
2017-09-04 23:00:00 25.5 3 Noroeste 10 Noroeste 0 -- -- 47
2017-09-04 22:00:00 26.6 4 Noroeste 15 Noroeste 0 -- -- 44
2017-09-04 21:00:00 28.1 8 Noroeste 25 Noroeste 0 -- -- 40
2017-09-04 20:00:00 30 13 Noroeste 30 Noroeste 0 -- -- 35
2017-09-04 19:00:00 31 14 Noroeste 28 Oeste 0 -- -- 29
2017-09-04 18:00:00 30.4 17 Noroeste 30 Oeste 0 -- -- 33
2017-09-04 17:00:00 31 13 Noroeste 31 Noroeste 0 -- -- 30
2017-09-04 16:00:00 29.6 15 Noroeste 31 Noroeste 0 -- -- 33
2017-09-04 15:00:00 27.7 14 Noroeste 32 Noroeste 0 -- -- 39
2017-09-04 14:00:00 26.2 13 Noroeste 29 Noroeste 0 -- -- 41
2017-09-04 13:00:00 25.1 13 Noroeste 30 Oeste 0 -- -- 42
2017-09-04 12:00:00 23.4 13 Noroeste 26 Noroeste 0 -- -- 46
2017-09-04 11:00:00 21.3 13 Noroeste 24 Noroeste 0 -- -- 56
2017-09-04 10:00:00 19.4 8 Oeste 12 Oeste 0 -- -- 61
2017-09-04 09:00:00 16.4 5 Sudoeste 13 Sur 0 -- -- 70
2017-09-04 08:00:00 16.1 5 Sur 11 Sur 0 -- -- 69
2017-09-04 07:00:00 16.5 3 Sur 8 Sudoeste 0 -- -- 63
2017-09-04 06:00:00 17.4 5 Sudoeste 10 Sudoeste 0 -- -- 56
2017-09-04 05:00:00 18.3 4 Sudoeste 10 Noroeste 0 -- -- 48
2017-09-04 04:00:00 19.2 4 Sudoeste 11 Oeste 0 -- -- 36
2017-09-04 03:00:00 20.1 5 Sudoeste 14 Sur 0 -- -- 31
2017-09-04 02:00:00 21.8 6 Sudoeste 17 Oeste 0 -- -- 25
2017-09-04 01:00:00 23.7 4 Noroeste 11 Oeste 0 -- -- 21
2017-09-04 00:00:00 24.8 4 Oeste 12 Oeste 0 -- -- 20
2017-09-03 23:00:00 25.6 2 Sudoeste 9 Oeste 0 -- -- 26
2017-09-03 22:00:00 27.4 8 Noroeste 13 Noroeste 0 -- -- 24
2017-09-03 21:00:00 29.2 10 Noroeste 24 Noroeste 0 -- -- 21
2017-09-03 20:00:00 31.4 14 Noroeste 30 Noroeste 0 -- -- 18
2017-09-03 19:00:00 32 12 Noroeste 31 Noroeste 0 -- -- 18
2017-09-03 18:00:00 32.7 15 Noroeste 31 Noroeste 0 -- -- 17
2017-09-03 17:00:00 31.6 15 Noroeste 39 Oeste 0 -- -- 20
2017-09-03 16:00:00 32.6 13 Oeste 28 Oeste 0 -- -- 20
2017-09-03 15:00:00 31.8 13 Oeste 23 Oeste 0 -- -- 24
2017-09-03 14:00:00 31.5 11 Oeste 26 Oeste 0 -- -- 25
2017-09-03 13:00:00 31.4 8 Sudoeste 21 Sudoeste 0 -- -- 30
2017-09-03 12:00:00 28.9 7 Sudoeste 13 Sudoeste 0 -- -- 37
2017-09-03 11:00:00 27.4 8 Sudoeste 16 Oeste 0 -- -- 46
2017-09-03 10:00:00 25.9 5 Sur 17 Sudeste 0 -- -- 50
2017-09-03 09:00:00 23.4 9 Sudeste 17 Sudeste 0 -- -- 57
2017-09-03 08:00:00 22.9 8 Sudeste 15 Sudeste 0 -- -- 58
2017-09-03 07:00:00 22 8 Sur 12 Sur 0 -- -- 56
2017-09-03 06:00:00 24.5 9 Sudeste 13 Sudeste 0 -- -- 48
2017-09-03 05:00:00 24.6 6 Sudeste 9 Sudeste 0 -- -- 48
2017-09-03 04:00:00 24.7 4 Sur 9 Sudeste 0 -- -- 49
2017-09-03 03:00:00 24.8 5 Sur 12 Sur 0 -- -- 46
2017-09-03 02:00:00 24.8 5 Sur 14 Sur 0 -- -- 29
2017-09-03 01:00:00 26.7 8 Nordeste 12 Nordeste 0 -- -- 27
2017-09-03 00:00:00 26.8 8 Sudeste 17 Este 0 -- -- 26
2017-09-02 23:00:00 28.3 10 Este 21 Este 0 -- -- 23
2017-09-02 22:00:00 27.9 8 Nordeste 15 Nordeste 0 -- -- 27
2017-09-02 21:00:00 29.3 10 Nordeste 17 Norte 0 -- -- 26
2017-09-02 20:00:00 30.9 10 Nordeste 19 Nordeste 0 -- -- 25
2017-09-02 19:00:00 31.4 11 Nordeste 23 Nordeste 0 -- -- 26
2017-09-02 18:00:00 32.3 9 Nordeste 20 Nordeste 0 -- -- 26
2017-09-02 17:00:00 32.6 6 Norte 15 Nordeste 0 -- -- 27
2017-09-02 16:00:00 33.5 10 Sur 27 Sudeste 0 -- -- 26
2017-09-02 15:00:00 30.7 8 Este 20 Sudeste 0 -- -- 33
2017-09-02 14:00:00 30.1 8 Este 26 Sudeste 0 -- -- 34
2017-09-02 13:00:00 30 14 Sur 30 Sudeste 0 -- -- 35
2017-09-02 12:00:00 28.3 18 Sudeste 28 Sudeste 0 -- -- 41
2017-09-02 11:00:00 25.6 6 Este 21 Este 0 -- -- 50
2017-09-02 10:00:00 23 10 Sudeste 27 Este 0 -- -- 59
2017-09-02 09:00:00 21.1 11 Sudeste 36 Este 0 -- -- 58
2017-09-02 08:00:00 21.2 14 Sudeste 31 Este 0 -- -- 51
2017-09-02 07:00:00 22.3 22 Sudeste 44 Este 0 -- -- 47
2017-09-02 06:00:00 22.8 24 Este 45 Este 0 -- -- 33
2017-09-02 05:00:00 23.3 23 Este 41 Este 0 -- -- 32
2017-09-02 04:00:00 24.1 13 Este 26 Este 0 -- -- 31
2017-09-02 03:00:00 24.4 9 Este 18 Este 0 -- -- 33
2017-09-02 02:00:00 24.7 9 Nordeste 15 Nordeste 0 -- -- 33
2017-09-02 01:00:00 24.4 6 Nordeste 12 Norte 0 -- -- 28
2017-09-02 00:00:00 25.3 7 Norte 15 Norte 0 -- -- 25
2017-09-01 23:00:00 26.1 10 Norte 16 Norte 0 -- -- 26
2017-09-01 22:00:00 27.1 9 Norte 16 Norte 0 -- -- 24
2017-09-01 21:00:00 28.7 9 Norte 26 Noroeste 0 -- -- 24
2017-09-01 20:00:00 31 13 Norte 29 Norte 0 -- -- 23
2017-09-01 19:00:00 31.8 15 Norte 28 Norte 0 -- -- 23
2017-09-01 18:00:00 32.2 14 Norte 26 Norte 0 -- -- 24
2017-09-01 17:00:00 32.4 12 Noroeste 27 Noroeste 0 -- -- 23
2017-09-01 16:00:00 32.1 9 Oeste 22 Oeste 0 -- -- 24
2017-09-01 15:00:00 31.2 9 Nordeste 21 Nordeste 0 -- -- 27
2017-09-01 14:00:00 30.8 10 Norte 23 Noroeste 0 -- -- 28
2017-09-01 13:00:00 29.5 9 Norte 18 Nordeste 0 -- -- 30
2017-09-01 12:00:00 28.3 8 Norte 16 Nordeste 0 -- -- 33
2017-09-01 11:00:00 26.1 6 Norte 13 Norte 0 -- -- 38
2017-09-01 10:00:00 23.2 3 Oeste 6 Oeste 0 -- -- 45
2017-09-01 09:00:00 20.3 4 Sudeste 11 Nordeste 0 -- -- 50
2017-09-01 08:00:00 20.6 9 Nordeste 12 Nordeste 0 -- -- 50
2017-09-01 07:00:00 22.2 9 Nordeste 13 Nordeste 0 -- -- 45
2017-09-01 06:00:00 20.8 4 Norte 7 Norte 0 -- -- 48
2017-09-01 05:00:00 21.3 2 Noroeste 5 Norte 0 -- -- 45
2017-09-01 04:00:00 22.5 2 Sur 12 Este 0 -- -- 42
2017-09-01 03:00:00 23.5 2 Norte 17 Norte 0 -- -- 40
2017-09-01 02:00:00 24.6 9 Nordeste 13 Nordeste 0 -- -- 38
2017-09-01 01:00:00 25.1 6 Norte 12 Norte 0 -- -- 37
2017-09-01 00:00:00 25.7 7 Nordeste 15 Nordeste 0 -- -- 35
2017-08-31 23:00:00 26 9 Nordeste 14 Nordeste 0 -- -- 35
2017-08-31 22:00:00 26.8 7 Norte 13 Norte 0 -- -- 34
2017-08-31 21:00:00 28 8 Norte 17 Norte 0 -- -- 31
2017-08-31 20:00:00 29.6 9 Norte 20 Nordeste 0 -- -- 27
2017-08-31 19:00:00 30 9 Norte 19 Nordeste 0 -- -- 28
2017-08-31 18:00:00 29.6 9 Nordeste 24 Nordeste 0 -- -- 29
2017-08-31 17:00:00 30.5 9 Norte 25 Norte 0 -- -- 29
2017-08-31 16:00:00 30.1 10 Norte 21 Nordeste 0 -- -- 30
2017-08-31 15:00:00 28.4 9 Norte 29 Nordeste 0 -- -- 33
2017-08-31 14:00:00 28 12 Norte 23 Norte 0 -- -- 35
2017-08-31 13:00:00 27 8 Norte 18 Nordeste 0 -- -- 37
2017-08-31 12:00:00 25.5 10 Nordeste 21 Nordeste 0 -- -- 42
2017-08-31 11:00:00 24.8 5 Sur 13 Nordeste 0 -- -- 46
2017-08-31 10:00:00 22 3 Norte 6 Norte 0 -- -- 52
2017-08-31 09:00:00 19.2 0 Calma 3 Sudeste 0 -- -- 58
2017-08-31 08:00:00 18.4 0 Calma 4 Este 0 -- -- 61
2017-08-31 07:00:00 18.7 3 Sudeste 6 Sudeste 0 -- -- 57
2017-08-31 06:00:00 19.2 3 Norte 6 Sudeste 0 -- -- 53
2017-08-31 05:00:00 19.6 0 Calma 4 Sudeste 0 -- -- 52
2017-08-31 04:00:00 20 2 Sur 7 Noroeste 0 -- -- 50
2017-08-31 03:00:00 21.1 2 Noroeste 4 Noroeste 0 -- -- 47
2017-08-31 02:00:00 21.4 2 Este 4 Sudeste 0 -- -- 45
2017-08-31 01:00:00 22 0 Calma 6 Norte 0 -- -- 44
2017-08-31 00:00:00 22.7 4 Norte 9 Nordeste 0 -- -- 43
2017-08-30 23:00:00 23.2 5 Nordeste 9 Nordeste 0 -- -- 41
2017-08-30 22:00:00 23.8 7 Norte 11 Norte 0 -- -- 38
2017-08-30 21:00:00 25 8 Noroeste 19 Noroeste 0 -- -- 36
2017-08-30 20:00:00 25.7 10 Noroeste 21 Noroeste 0 -- -- 36
2017-08-30 19:00:00 26.7 12 Oeste 23 Noroeste 0 -- -- 35
2017-08-30 18:00:00 28.3 9 Noroeste 24 Oeste 0 -- -- 31
2017-08-30 17:00:00 27.3 9 Noroeste 25 Oeste 0 -- -- 32
2017-08-30 16:00:00 27.5 12 Noroeste 22 Noroeste 0 -- -- 33
2017-08-30 15:00:00 25.6 4 Norte 17 Oeste 0 -- -- 38
2017-08-30 14:00:00 26.3 5 Oeste 19 Sudoeste 0 -- -- 37
2017-08-30 13:00:00 24.2 6 Nordeste 14 Nordeste 0 -- -- 41
2017-08-30 12:00:00 21.8 2 Nordeste 20 Oeste 0 -- -- 51
2017-08-30 11:00:00 22.1 5 Sudeste 15 Sudoeste 0 -- -- 53
2017-08-30 10:00:00 21.1 6 Sudoeste 13 Sur 0 -- -- 55
2017-08-30 09:00:00 18.1 12 Sudeste 17 Sudeste 0 -- -- 65
2017-08-30 08:00:00 16.3 8 Sudeste 14 Sudeste 0 -- -- 75
2017-08-30 07:00:00 16.7 2 Nordeste 10 Sudeste 0 -- -- 72
2017-08-30 06:00:00 17 3 Nordeste 8 Sudeste 0 -- -- 71
2017-08-30 05:00:00 16.6 6 Sudeste 8 Sudeste 0 -- -- 73
2017-08-30 04:00:00 17.5 0 Calma 6 Norte 0 -- -- 70
2017-08-30 03:00:00 17.7 5 Sudeste 8 Sudeste 0 -- -- 65
2017-08-30 02:00:00 18.3 0 Calma 5 Noroeste 0 -- -- 64
2017-08-30 01:00:00 18.5 4 Oeste 7 Noroeste 0 -- -- 57
2017-08-30 00:00:00 19.3 2 Sur 6 Este 0 -- -- 54
2017-08-29 23:00:00 19.7 2 Norte 5 Norte 0 -- -- 55
2017-08-29 22:00:00 20.3 5 Noroeste 13 Norte 0 -- -- 54
2017-08-29 21:00:00 21 9 Nordeste 17 Norte 0 -- -- 54
2017-08-29 20:00:00 21.4 8 Nordeste 18 Norte 0 -- -- 52
2017-08-29 19:00:00 22.5 11 Norte 17 Noroeste 0 -- -- 47
2017-08-29 18:00:00 21.4 12 Oeste 33 Oeste 0 -- -- 55
2017-08-29 17:00:00 23.1 18 Noroeste 42 Oeste 0 -- -- 50
2017-08-29 16:00:00 26.9 8 Sudoeste 23 Sur 0 -- -- 32
2017-08-29 15:00:00 25.1 6 Sudeste 21 Oeste 0 -- -- 36
2017-08-29 14:00:00 24.5 11 Sudoeste 22 Sudoeste 0 -- -- 40
2017-08-29 13:00:00 25.7 7 Sur 22 Sur 0 -- -- 40
2017-08-29 12:00:00 23.5 4 Sudeste 19 Sur 0 -- -- 45
2017-08-29 11:00:00 21.1 9 Sur 16 Sur 0 -- -- 59
2017-08-29 10:00:00 18.8 5 Norte 17 Sudeste 0 -- -- 69
2017-08-29 09:00:00 17.9 9 Sur 17 Sudeste 0 -- -- 73
2017-08-29 08:00:00 16.9 8 Sudeste 12 Sudeste 0 -- -- 78
2017-08-29 07:00:00 16.4 5 Sudeste 9 Sudeste 0 -- -- 81
2017-08-29 06:00:00 16.5 4 Sudeste 6 Sudeste 0 -- -- 82
2017-08-29 05:00:00 17 3 Noroeste 9 Noroeste 0 -- -- 78
2017-08-29 04:00:00 17.7 7 Noroeste 11 Norte 0 -- -- 75
2017-08-29 03:00:00 17.8 0 Calma 6 Noroeste 0 -- -- 74
2017-08-29 02:00:00 18.4 7 Sudoeste 9 Sudoeste 0 -- -- 71
2017-08-29 01:00:00 18.9 8 Oeste 18 Oeste 0 -- -- 66
2017-08-29 00:00:00 20.3 14 Oeste 25 Oeste 0 -- -- 56
2017-08-28 23:00:00 22.2 17 Oeste 37 Sudoeste 0 -- -- 55
2017-08-28 22:00:00 23.5 26 Sudoeste 39 Sur 0 -- -- 38
2017-08-28 21:00:00 24.8 19 Sudoeste 37 Sur 0 -- -- 37
2017-08-28 20:00:00 26 25 Sur 35 Sudoeste 0 -- -- 32
2017-08-28 19:00:00 28.7 26 Sudoeste 34 Sudoeste 0 -- -- 27
2017-08-28 18:00:00 30.1 26 Sur 36 Sur 0 -- -- 24
2017-08-28 17:00:00 30.1 23 Sudoeste 41 Sudoeste 0 -- -- 26
2017-08-28 16:00:00 27.6 23 Sudeste 54 Sudeste 0 -- -- 32
2017-08-28 15:00:00 30.1 27 Sur 44 Sur 0 -- -- 26
2017-08-28 14:00:00 29.2 18 Sur 32 Sur 0 -- -- 30
2017-08-28 13:00:00 26.8 15 Sudoeste 27 Oeste 0 -- -- 35
2017-08-28 12:00:00 24.8 9 Sudoeste 21 Sudoeste 0 -- -- 44
2017-08-28 11:00:00 22.1 11 Sudoeste 18 Sudoeste 0 -- -- 53
2017-08-28 10:00:00 18.5 2 Noroeste 21 Noroeste 0 -- -- 69
2017-08-28 09:00:00 21 3 Noroeste 15 Sudeste 0 -- -- 59
2017-08-28 08:00:00 20.5 4 Sudeste 17 Este 0 -- -- 60
2017-08-28 07:00:00 20.8 9 Este 15 Este 0 -- -- 60
2017-08-28 06:00:00 20.6 4 Norte 13 Oeste 0 -- -- 60
2017-08-28 05:00:00 20.8 8 Noroeste 12 Oeste 0 -- -- 59
2017-08-28 04:00:00 21.2 9 Oeste 20 Oeste 0 -- -- 56
2017-08-28 03:00:00 22.5 17 Oeste 32 Sudoeste 0 -- -- 50
2017-08-28 02:00:00 24.1 23 Sur 38 Sur 0 -- -- 44
2017-08-28 01:00:00 24.7 27 Sudoeste 40 Sudoeste 0 -- -- 48
2017-08-28 00:00:00 25.4 23 Sudoeste 36 Sur 0 -- -- 61
2017-08-27 23:00:00 26.6 16 Sudoeste 28 Sur 0 -- -- 56
2017-08-27 22:00:00 27.2 19 Sudoeste 38 Sur 0 -- -- 49
2017-08-27 21:00:00 27.7 27 Sur 40 Sur 0 -- -- 45
2017-08-27 20:00:00 29.2 31 Sur 44 Sur 0 -- -- 42
2017-08-27 19:00:00 30.9 32 Sudoeste 49 Sur 0 -- -- 35
2017-08-27 18:00:00 31.1 36 Sur 50 Sur 0 -- -- 36
2017-08-27 17:00:00 32.5 36 Sur 58 Sur 0 -- -- 33
2017-08-27 16:00:00 31.4 39 Sur 67 Sur 0 -- -- 36
2017-08-27 15:00:00 30 35 Sur 65 Sur 0 -- -- 38
2017-08-27 14:00:00 30.1 32 Sur 56 Sur 0 -- -- 37
2017-08-27 13:00:00 30.6 26 Sur 42 Sur 0 -- -- 38
2017-08-27 12:00:00 26.4 28 Sudeste 46 Sudeste 0 -- -- 53
2017-08-27 11:00:00 22.6 27 Sudeste 48 Sudeste 0 -- -- 64
2017-08-27 10:00:00 21.5 33 Sudeste 69 Sur 0.2 -- -- 64
2017-08-27 09:00:00 23.2 12 Sur 22 Sur 0 -- -- 53
2017-08-27 08:00:00 23.7 2 Oeste 8 Sur 0 -- -- 45
2017-08-27 07:00:00 24.2 4 Oeste 17 Sudoeste 0 -- -- 42
2017-08-27 06:00:00 24.6 9 Sur 24 Sur 0 -- -- 49
2017-08-27 05:00:00 25.7 22 Sur 35 Sudeste 0 -- -- 46
2017-08-27 04:00:00 26.1 21 Sudeste 35 Sudeste 0.2 -- -- 40
2017-08-27 03:00:00 25.9 20 Sudeste 60 Sur 0.2 -- -- 47
2017-08-27 02:00:00 29.3 5 Oeste 19 Oeste 0 -- -- 28
2017-08-27 01:00:00 30 8 Sur 29 Sur 0 -- -- 27
2017-08-27 00:00:00 29.9 19 Sur 36 Sur 0 -- -- 27
2017-08-26 23:00:00 30.2 16 Sur 31 Sur 0 -- -- 25
2017-08-26 22:00:00 31.3 20 Sur 42 Sur 0 -- -- 22
2017-08-26 21:00:00 31.6 12 Sudeste 30 Sudeste 0 -- -- 19
2017-08-26 20:00:00 32.5 22 Sudeste 38 Sudeste 0 -- -- 19
2017-08-26 19:00:00 33.3 21 Sur 38 Sur 0 -- -- 17
2017-08-26 18:00:00 34 20 Sudeste 36 Sudeste 0 -- -- 17
2017-08-26 17:00:00 33.5 14 Sur 21 Sur 0 -- -- 18
2017-08-26 16:00:00 32.9 7 Nordeste 20 Nordeste 0 -- -- 18
2017-08-26 15:00:00 32.7 7 Sudeste 19 Sudeste 0 -- -- 18
2017-08-26 14:00:00 31.3 10 Este 28 Este 0 -- -- 19
2017-08-26 13:00:00 28.8 11 Este 20 Este 0 -- -- 17
2017-08-26 12:00:00 26.8 7 Nordeste 19 Norte 0 -- -- 18
2017-08-26 11:00:00 26.9 9 Noroeste 15 Noroeste 0 -- -- 23
2017-08-26 10:00:00 26.6 3 Sudoeste 14 Noroeste 0 -- -- 23
2017-08-26 09:00:00 24.9 13 Oeste 22 Oeste 0 -- -- 30
2017-08-26 08:00:00 25.6 11 Sudeste 18 Sudeste 0 -- -- 26
2017-08-26 07:00:00 24.7 5 Noroeste 23 Sudeste 0 -- -- 27
2017-08-26 06:00:00 25.9 8 Sudeste 13 Sudeste 0 -- -- 23
2017-08-26 05:00:00 25.8 0 Calma 4 Sur 0 -- -- 20
2017-08-26 04:00:00 26.1 3 Sudeste 8 Sudeste 0 -- -- 20
2017-08-26 03:00:00 25.6 3 Sur 6 Sur 0 -- -- 21
2017-08-26 02:00:00 26.2 2 Sur 8 Sur 0 -- -- 22
2017-08-26 01:00:00 27 2 Sudoeste 5 Sudeste 0 -- -- 23
2017-08-26 00:00:00 27.9 2 Noroeste 15 Norte 0 -- -- 21
2017-08-25 23:00:00 29 8 Norte 14 Noroeste 0 -- -- 22
2017-08-25 22:00:00 30.1 7 Norte 15 Nordeste 0 -- -- 24
2017-08-25 21:00:00 31.9 5 Nordeste 12 Nordeste 0 -- -- 22
2017-08-25 20:00:00 32.8 8 Nordeste 19 Nordeste 0 -- -- 21
2017-08-25 19:00:00 33.3 14 Nordeste 26 Norte 0 -- -- 21
2017-08-25 18:00:00 35.2 17 Norte 48 Noroeste 0 -- -- 18
2017-08-25 17:00:00 36.3 21 Sudoeste 41 Sudoeste 0 -- -- 15
2017-08-25 16:00:00 36.5 8 Oeste 25 Sudoeste 0 -- -- 15
2017-08-25 15:00:00 33.9 14 Oeste 26 Oeste 0 -- -- 18
2017-08-25 14:00:00 33.3 9 Oeste 23 Oeste 0 -- -- 18
2017-08-25 13:00:00 31.9 9 Sudoeste 20 Oeste 0 -- -- 22
2017-08-25 12:00:00 28.7 6 Norte 13 Norte 0 -- -- 26
2017-08-25 11:00:00 26.2 9 Nordeste 14 Nordeste 0 -- -- 30
2017-08-25 10:00:00 24.5 6 Nordeste 15 Nordeste 0 -- -- 32
2017-08-25 09:00:00 22.4 4 Norte 8 Nordeste 0 -- -- 37
2017-08-25 08:00:00 22.3 3 Norte 10 Nordeste 0 -- -- 36
2017-08-25 07:00:00 22.9 7 Nordeste 10 Nordeste 0 -- -- 34
2017-08-25 06:00:00 22.9 5 Nordeste 7 Norte 0 -- -- 35
2017-08-25 05:00:00 23.7 3 Noroeste 5 Noroeste 0 -- -- 31
2017-08-25 04:00:00 24.4 3 Sur 8 Sudeste 0 -- -- 30
2017-08-25 03:00:00 24.8 6 Sudeste 8 Sudeste 0 -- -- 30
2017-08-25 02:00:00 25.2 2 Sur 5 Sur 0 -- -- 29
2017-08-25 01:00:00 26.1 0 Calma 6 Noroeste 0 -- -- 28
2017-08-25 00:00:00 27.3 4 Noroeste 8 Oeste 0 -- -- 25
2017-08-24 23:00:00 27.8 3 Norte 7 Noroeste 0 -- -- 24
2017-08-24 22:00:00 28.6 4 Norte 16 Noroeste 0 -- -- 23
2017-08-24 21:00:00 29.8 11 Norte 24 Noroeste 0 -- -- 22
2017-08-24 20:00:00 31.9 17 Noroeste 33 Noroeste 0 -- -- 21
2017-08-24 19:00:00 34.6 20 Noroeste 30 Noroeste 0 -- -- 20
2017-08-24 18:00:00 36.1 14 Noroeste 30 Oeste 0 -- -- 17
2017-08-24 17:00:00 35.8 13 Noroeste 29 Noroeste 0 -- -- 17
2017-08-24 16:00:00 35.2 12 Norte 29 Norte 0 -- -- 20
2017-08-24 15:00:00 34.5 15 Noroeste 44 Oeste 0 -- -- 23
2017-08-24 14:00:00 34.7 19 Sudoeste 33 Sudoeste 0 -- -- 19
2017-08-24 13:00:00 32.9 18 Oeste 29 Sudoeste 0 -- -- 19
2017-08-24 12:00:00 31.1 12 Oeste 21 Oeste 0 -- -- 30
2017-08-24 11:00:00 30.1 7 Sur 13 Sur 0 -- -- 32
2017-08-24 10:00:00 28.1 9 Sur 12 Sur 0 -- -- 35
2017-08-24 09:00:00 24.7 3 Sudeste 9 Sur 0 -- -- 39
2017-08-24 08:00:00 23.5 5 Sur 9 Sur 0 -- -- 41
2017-08-24 07:00:00 23.5 8 Sur 10 Sur 0 -- -- 44
2017-08-24 06:00:00 23.5 5 Sur 9 Sur 0 -- -- 45
2017-08-24 05:00:00 23.6 4 Sur 12 Sur 0 -- -- 46
2017-08-24 04:00:00 24.5 8 Sudeste 10 Sudeste 0 -- -- 44
2017-08-24 03:00:00 25.5 8 Sur 14 Sur 0 -- -- 38
2017-08-24 02:00:00 26.8 3 Sudoeste 12 Oeste 0 -- -- 30
2017-08-24 01:00:00 28.5 6 Noroeste 12 Oeste 0 -- -- 26
2017-08-24 00:00:00 29.9 3 Noroeste 11 Oeste 0 -- -- 23
2017-08-23 23:00:00 30.8 3 Noroeste 14 Noroeste 0 -- -- 22
2017-08-23 22:00:00 31.8 9 Noroeste 19 Noroeste 0 -- -- 20
2017-08-23 21:00:00 33.5 14 Noroeste 32 Noroeste 0 -- -- 20
2017-08-23 20:00:00 35.9 19 Noroeste 29 Norte 0 -- -- 21
2017-08-23 19:00:00 37 18 Norte 28 Norte 0 -- -- 22
2017-08-23 18:00:00 38.5 10 Noroeste 27 Oeste 0 -- -- 18
2017-08-23 17:00:00 37.2 13 Oeste 28 Oeste 0 -- -- 21
2017-08-23 16:00:00 37.8 8 Sudoeste 27 Oeste 0 -- -- 20
2017-08-23 15:00:00 36.8 7 Sur 26 Oeste 0 -- -- 22
2017-08-23 14:00:00 35.7 12 Oeste 19 Oeste 0 -- -- 25
2017-08-23 13:00:00 34.6 9 Sudoeste 18 Oeste 0 -- -- 27
2017-08-23 12:00:00 33 6 Noroeste 14 Oeste 0 -- -- 29
2017-08-23 11:00:00 30.9 6 Sudoeste 12 Sudoeste 0 -- -- 32
2017-08-23 10:00:00 29 6 Sur 10 Sudoeste 0 -- -- 37
2017-08-23 09:00:00 26.1 2 Sudoeste 8 Sudeste 0 -- -- 44
2017-08-23 08:00:00 24.6 5 Sur 12 Sur 0 -- -- 47
2017-08-23 07:00:00 24.8 4 Sudoeste 10 Sur 0 -- -- 46
2017-08-23 06:00:00 25.4 4 Sur 8 Sur 0 -- -- 44
2017-08-23 05:00:00 25.8 3 Sur 8 Sur 0 -- -- 42
2017-08-23 04:00:00 26.5 4 Sur 6 Sur 0 -- -- 39
2017-08-23 03:00:00 27.3 2 Sudeste 5 Noroeste 0 -- -- 37
2017-08-23 02:00:00 28.5 3 Noroeste 6 Oeste 0 -- -- 35
2017-08-23 01:00:00 28.9 4 Sudoeste 10 Sur 0 -- -- 33
2017-08-23 00:00:00 30.3 0 Calma 13 Norte 0 -- -- 31
2017-08-22 23:00:00 31.1 8 Norte 15 Norte 0 -- -- 29
2017-08-22 22:00:00 32.3 8 Norte 16 Norte 0 -- -- 25
2017-08-22 21:00:00 34 9 Noroeste 20 Noroeste 0 -- -- 24
2017-08-22 20:00:00 35.6 11 Norte 29 Noroeste 0 -- -- 22
2017-08-22 19:00:00 36.2 12 Norte 30 Noroeste 0 -- -- 25
2017-08-22 18:00:00 36.4 13 Noroeste 31 Noroeste 0 -- -- 26
2017-08-22 17:00:00 36.4 8 Norte 18 Norte 0 -- -- 28
2017-08-22 16:00:00 36.2 9 Oeste 23 Sudoeste 0 -- -- 27
2017-08-22 15:00:00 34.9 6 Sudeste 21 Noroeste 0 -- -- 29
2017-08-22 14:00:00 34.5 7 Oeste 21 Sudoeste 0 -- -- 33
2017-08-22 13:00:00 32.7 7 Sudoeste 17 Oeste 0 -- -- 35
2017-08-22 12:00:00 30.7 8 Oeste 17 Oeste 0 -- -- 40
2017-08-22 11:00:00 28.7 9 Oeste 15 Oeste 0 -- -- 45
2017-08-22 10:00:00 27.9 7 Sudoeste 12 Sur 0 -- -- 48
2017-08-22 09:00:00 25.9 6 Sur 10 Sur 0 -- -- 54
2017-08-22 08:00:00 24.9 7 Sur 13 Sur 0 -- -- 57
2017-08-22 07:00:00 25 8 Sur 13 Sur 0 -- -- 56
2017-08-22 06:00:00 25.5 9 Sur 13 Sur 0 -- -- 54
2017-08-22 05:00:00 25.9 8 Sur 12 Sudoeste 0 -- -- 51
2017-08-22 04:00:00 26.6 8 Sudoeste 12 Sudoeste 0 -- -- 47
2017-08-22 03:00:00 27.5 9 Sur 14 Sur 0 -- -- 44
2017-08-22 02:00:00 28.5 9 Sur 15 Sudoeste 0 -- -- 40
2017-08-22 01:00:00 29.7 4 Sur 10 Sur 0 -- -- 37
2017-08-22 00:00:00 30.5 9 Sudeste 13 Sudeste 0 -- -- 39